DLH7LL EDDM-EDDG
Flight info
| Callsign | DLH7LL |
|---|---|
| Flight time | 0h 58m |
| Altitude | 32000 |
| Route | INPUD3Q INPUD Y102 TESDU DCT AMETU T852 EKSAK/N0376F260 T852 KULIX/N0365F240 T842 ADEMI Z850 HMM HMM1B |
| Aircraft | A319/M-SDE2E3FGIJ1LORWXYZ/HB1 |
Departure
| Time | 2026-04-17 12:15 |
|---|---|
| Airport | Munich Airport (EDDM) |
Arrival
| Time | 2026-04-17 13:13 |
|---|---|
| Airport | Münster Osnabrück Airport (EDDG) |
| Time | Latitude | Longitude | Altitude | Speed | Heading |
|---|---|---|---|---|---|
| 2026-04-17 11:54 | 48.35270 | 11.79326 | 1486 ft | 0 kts | 263° |
| 2026-04-17 12:04 | 48.35271 | 11.79342 | 1485 ft | 4 kts | 264° |
| 2026-04-17 12:04 | 48.35273 | 11.79383 | 1474 ft | 4 kts | 267° |
| 2026-04-17 12:05 | 48.35274 | 11.79423 | 1476 ft | 4 kts | 273° |
| 2026-04-17 12:05 | 48.35270 | 11.79463 | 1471 ft | 4 kts | 293° |
| 2026-04-17 12:05 | 48.35257 | 11.79487 | 1471 ft | 2 kts | 353° |
| 2026-04-17 12:05 | 48.35251 | 11.79488 | 1477 ft | 0 kts | 354° |
| 2026-04-17 12:09 | 48.35254 | 11.79488 | 1485 ft | 2 kts | 354° |
| 2026-04-17 12:09 | 48.35302 | 11.79481 | 1475 ft | 9 kts | 354° |
| 2026-04-17 12:09 | 48.35374 | 11.79468 | 1485 ft | 12 kts | 353° |
| 2026-04-17 12:09 | 48.35426 | 11.79459 | 1480 ft | 0 kts | 353° |
| 2026-04-17 12:10 | 48.35433 | 11.79457 | 1481 ft | 3 kts | 352° |
| 2026-04-17 12:11 | 48.35477 | 11.79448 | 1481 ft | 9 kts | 353° |
| 2026-04-17 12:11 | 48.35544 | 11.79436 | 1485 ft | 10 kts | 353° |
| 2026-04-17 12:11 | 48.35626 | 11.79422 | 1479 ft | 14 kts | 353° |
| 2026-04-17 12:12 | 48.35826 | 11.79388 | 1485 ft | 15 kts | 354° |
| 2026-04-17 12:12 | 48.35931 | 11.79352 | 1480 ft | 16 kts | 336° |
| 2026-04-17 12:12 | 48.36046 | 11.79322 | 1480 ft | 17 kts | 348° |
| 2026-04-17 12:12 | 48.36081 | 11.79162 | 1485 ft | 19 kts | 264° |
| 2026-04-17 12:13 | 48.36064 | 11.78957 | 1485 ft | 21 kts | 263° |
| 2026-04-17 12:13 | 48.36050 | 11.78728 | 1485 ft | 23 kts | 264° |
| 2026-04-17 12:13 | 48.36054 | 11.78511 | 1477 ft | 18 kts | 309° |
| 2026-04-17 12:13 | 48.36178 | 11.78484 | 1485 ft | 20 kts | 19° |
| 2026-04-17 12:14 | 48.36267 | 11.78631 | 1483 ft | 20 kts | 52° |
| 2026-04-17 12:14 | 48.36351 | 11.78811 | 1481 ft | 22 kts | 53° |
| 2026-04-17 12:14 | 48.36436 | 11.79012 | 1482 ft | 24 kts | 66° |
| 2026-04-17 12:14 | 48.36470 | 11.79269 | 1485 ft | 31 kts | 83° |
| 2026-04-17 12:15 | 48.36527 | 11.80045 | 1474 ft | 117 kts | 83° |
| 2026-04-17 12:15 | 48.36653 | 11.81529 | 1781 ft | 154 kts | 81° |
| 2026-04-17 12:15 | 48.36784 | 11.83112 | 2643 ft | 151 kts | 83° |
| 2026-04-17 12:15 | 48.36907 | 11.84739 | 3286 ft | 166 kts | 82° |
| 2026-04-17 12:16 | 48.37421 | 11.86394 | 3765 ft | 192 kts | 45° |
| 2026-04-17 12:16 | 48.38731 | 11.87130 | 4157 ft | 220 kts | 6° |
| 2026-04-17 12:16 | 48.40350 | 11.87054 | 4661 ft | 244 kts | 356° |
| 2026-04-17 12:16 | 48.41982 | 11.86183 | 5494 ft | 260 kts | 327° |
| 2026-04-17 12:17 | 48.43269 | 11.84124 | 6323 ft | 277 kts | 308° |
| 2026-04-17 12:17 | 48.44496 | 11.81829 | 6957 ft | 283 kts | 310° |
| 2026-04-17 12:17 | 48.45772 | 11.79539 | 7357 ft | 290 kts | 312° |
| 2026-04-17 12:17 | 48.47081 | 11.77244 | 8540 ft | 286 kts | 312° |
| 2026-04-17 12:18 | 48.48380 | 11.74979 | 9759 ft | 286 kts | 312° |
| 2026-04-17 12:18 | 48.49685 | 11.72700 | 10792 ft | 288 kts | 312° |
| 2026-04-17 12:18 | 48.50995 | 11.70404 | 11790 ft | 290 kts | 311° |
| 2026-04-17 12:18 | 48.52314 | 11.68091 | 12781 ft | 292 kts | 311° |
| 2026-04-17 12:19 | 48.53639 | 11.65760 | 13774 ft | 294 kts | 311° |
| 2026-04-17 12:19 | 48.54973 | 11.63400 | 14668 ft | 297 kts | 311° |
| 2026-04-17 12:19 | 48.56365 | 11.61087 | 15524 ft | 299 kts | 318° |
| 2026-04-17 12:19 | 48.58063 | 11.59241 | 16251 ft | 308 kts | 330° |
| 2026-04-17 12:20 | 48.60099 | 11.57914 | 16567 ft | 328 kts | 339° |
| 2026-04-17 12:20 | 48.62266 | 11.56681 | 17217 ft | 336 kts | 339° |
| 2026-04-17 12:20 | 48.64468 | 11.55431 | 17994 ft | 340 kts | 338° |
| 2026-04-17 12:20 | 48.66692 | 11.54160 | 18754 ft | 343 kts | 338° |
| 2026-04-17 12:21 | 48.68935 | 11.52872 | 19446 ft | 346 kts | 338° |
| 2026-04-17 12:21 | 48.71195 | 11.51568 | 20155 ft | 349 kts | 338° |
| 2026-04-17 12:21 | 48.73475 | 11.50249 | 20857 ft | 352 kts | 338° |
| 2026-04-17 12:21 | 48.75771 | 11.48917 | 21552 ft | 355 kts | 338° |
| 2026-04-17 12:22 | 48.78093 | 11.47567 | 22255 ft | 358 kts | 338° |
| 2026-04-17 12:22 | 48.80429 | 11.46201 | 22940 ft | 362 kts | 338° |
| 2026-04-17 12:22 | 48.82788 | 11.44824 | 23623 ft | 365 kts | 338° |
| 2026-04-17 12:22 | 48.85170 | 11.43439 | 24197 ft | 369 kts | 338° |
| 2026-04-17 12:23 | 48.87574 | 11.42043 | 24727 ft | 373 kts | 338° |
| 2026-04-17 12:23 | 48.89977 | 11.40642 | 25277 ft | 376 kts | 338° |
| 2026-04-17 12:23 | 48.92452 | 11.39194 | 25837 ft | 378 kts | 338° |
| 2026-04-17 12:23 | 48.94918 | 11.37750 | 26386 ft | 381 kts | 338° |
| 2026-04-17 12:24 | 48.97400 | 11.36294 | 26936 ft | 383 kts | 338° |
| 2026-04-17 12:24 | 48.99864 | 11.34853 | 27480 ft | 386 kts | 338° |
| 2026-04-17 12:24 | 49.02377 | 11.33382 | 28006 ft | 388 kts | 338° |
| 2026-04-17 12:24 | 49.04905 | 11.31901 | 28528 ft | 391 kts | 338° |
| 2026-04-17 12:25 | 49.07453 | 11.30405 | 29036 ft | 394 kts | 338° |
| 2026-04-17 12:25 | 49.10015 | 11.28898 | 29553 ft | 396 kts | 338° |
| 2026-04-17 12:25 | 49.12597 | 11.27377 | 30060 ft | 399 kts | 338° |
| 2026-04-17 12:25 | 49.15197 | 11.25844 | 30514 ft | 402 kts | 338° |
| 2026-04-17 12:26 | 49.17809 | 11.24300 | 30934 ft | 404 kts | 338° |
| 2026-04-17 12:26 | 49.20438 | 11.22742 | 31372 ft | 406 kts | 338° |
| 2026-04-17 12:26 | 49.23075 | 11.21185 | 31822 ft | 407 kts | 338° |
| 2026-04-17 12:26 | 49.25727 | 11.19663 | 32157 ft | 406 kts | 338° |
| 2026-04-17 12:27 | 49.28361 | 11.18181 | 32218 ft | 397 kts | 339° |
| 2026-04-17 12:27 | 49.30903 | 11.16766 | 32210 ft | 381 kts | 339° |
| 2026-04-17 12:27 | 49.33348 | 11.15403 | 32223 ft | 369 kts | 339° |
| 2026-04-17 12:28 | 49.38119 | 11.12718 | 32221 ft | 363 kts | 338° |
| 2026-04-17 12:28 | 49.42846 | 11.10027 | 32220 ft | 362 kts | 338° |
| 2026-04-17 12:29 | 49.47557 | 11.07330 | 32220 ft | 360 kts | 338° |
| 2026-04-17 12:29 | 49.52242 | 11.04609 | 32220 ft | 360 kts | 334° |
| 2026-04-17 12:30 | 49.56554 | 11.00739 | 32217 ft | 359 kts | 328° |
| 2026-04-17 12:30 | 49.60808 | 10.96734 | 32216 ft | 358 kts | 328° |
| 2026-04-17 12:31 | 49.65070 | 10.92728 | 32215 ft | 358 kts | 328° |
| 2026-04-17 12:31 | 49.69321 | 10.88719 | 32230 ft | 358 kts | 328° |
| 2026-04-17 12:32 | 49.73568 | 10.84700 | 32215 ft | 358 kts | 328° |
| 2026-04-17 12:32 | 49.77815 | 10.80678 | 32216 ft | 358 kts | 328° |
| 2026-04-17 12:33 | 49.82060 | 10.76642 | 32218 ft | 358 kts | 328° |
| 2026-04-17 12:33 | 49.86281 | 10.72630 | 32224 ft | 358 kts | 328° |
| 2026-04-17 12:34 | 49.90530 | 10.68578 | 32216 ft | 358 kts | 328° |
| 2026-04-17 12:34 | 49.94776 | 10.64516 | 32231 ft | 358 kts | 328° |
| 2026-04-17 12:35 | 49.99010 | 10.60457 | 32231 ft | 358 kts | 328° |
| 2026-04-17 12:35 | 50.03236 | 10.56392 | 32232 ft | 357 kts | 328° |
| 2026-04-17 12:37 | 50.20060 | 10.39876 | 32231 ft | 357 kts | 318° |
| 2026-04-17 12:38 | 50.23210 | 10.33915 | 32230 ft | 357 kts | 306° |
| 2026-04-17 12:38 | 50.26055 | 10.27567 | 32224 ft | 357 kts | 306° |
| 2026-04-17 12:39 | 50.28902 | 10.21217 | 32216 ft | 356 kts | 306° |
| 2026-04-17 12:39 | 50.31737 | 10.14861 | 32199 ft | 356 kts | 306° |
| 2026-04-17 12:40 | 50.34571 | 10.08502 | 32204 ft | 357 kts | 306° |
| 2026-04-17 12:40 | 50.37412 | 10.02121 | 32204 ft | 357 kts | 306° |
| 2026-04-17 12:41 | 50.40227 | 9.95763 | 32201 ft | 357 kts | 305° |
| 2026-04-17 12:41 | 50.43055 | 9.89351 | 32204 ft | 358 kts | 305° |
| 2026-04-17 12:42 | 50.45877 | 9.82931 | 32196 ft | 358 kts | 305° |
| 2026-04-17 12:42 | 50.48701 | 9.76502 | 32203 ft | 357 kts | 305° |
| 2026-04-17 12:43 | 50.51520 | 9.70071 | 32209 ft | 357 kts | 305° |
| 2026-04-17 12:43 | 50.54335 | 9.63637 | 32205 ft | 357 kts | 305° |
| 2026-04-17 12:44 | 50.57147 | 9.57198 | 32201 ft | 357 kts | 305° |
| 2026-04-17 12:44 | 50.59954 | 9.50748 | 32199 ft | 357 kts | 305° |
| 2026-04-17 12:45 | 50.62754 | 9.44295 | 32202 ft | 357 kts | 305° |
| 2026-04-17 12:45 | 50.65552 | 9.37843 | 32199 ft | 356 kts | 305° |
| 2026-04-17 12:46 | 50.68325 | 9.31430 | 32185 ft | 356 kts | 304° |
| 2026-04-17 12:46 | 50.71106 | 9.24957 | 32185 ft | 356 kts | 304° |
| 2026-04-17 12:47 | 50.73885 | 9.18489 | 32188 ft | 356 kts | 304° |
| 2026-04-17 12:47 | 50.76667 | 9.12009 | 32189 ft | 357 kts | 304° |
| 2026-04-17 12:48 | 50.79443 | 9.05512 | 32190 ft | 357 kts | 304° |
| 2026-04-17 12:48 | 50.80837 | 9.02240 | 32088 ft | 363 kts | 304° |
| 2026-04-17 12:48 | 50.82251 | 8.98919 | 31832 ft | 366 kts | 304° |
| 2026-04-17 12:48 | 50.83686 | 8.95590 | 31574 ft | 366 kts | 306° |
| 2026-04-17 12:49 | 50.85203 | 8.92361 | 31322 ft | 365 kts | 308° |
| 2026-04-17 12:49 | 50.86777 | 8.89221 | 31073 ft | 365 kts | 309° |
| 2026-04-17 12:49 | 50.88381 | 8.86116 | 30827 ft | 364 kts | 309° |
| 2026-04-17 12:49 | 50.89989 | 8.83020 | 30578 ft | 363 kts | 309° |
| 2026-04-17 12:50 | 50.91577 | 8.79934 | 30303 ft | 360 kts | 309° |
| 2026-04-17 12:50 | 50.93144 | 8.76844 | 29840 ft | 358 kts | 308° |
| 2026-04-17 12:50 | 50.94685 | 8.73765 | 29411 ft | 356 kts | 308° |
| 2026-04-17 12:50 | 50.96211 | 8.70694 | 28986 ft | 354 kts | 308° |
| 2026-04-17 12:51 | 50.97726 | 8.67632 | 28582 ft | 352 kts | 308° |
| 2026-04-17 12:51 | 50.99235 | 8.64585 | 28165 ft | 350 kts | 308° |
| 2026-04-17 12:51 | 51.00744 | 8.61565 | 27746 ft | 348 kts | 310° |
| 2026-04-17 12:51 | 51.02480 | 8.58891 | 27319 ft | 348 kts | 320° |
| 2026-04-17 12:52 | 51.04478 | 8.56717 | 26880 ft | 348 kts | 325° |
| 2026-04-17 12:52 | 51.06506 | 8.54624 | 26428 ft | 347 kts | 325° |
| 2026-04-17 12:52 | 51.08528 | 8.52535 | 25986 ft | 346 kts | 324° |
| 2026-04-17 12:52 | 51.10546 | 8.50442 | 25521 ft | 346 kts | 324° |
| 2026-04-17 12:53 | 51.12561 | 8.48349 | 25059 ft | 346 kts | 324° |
| 2026-04-17 12:53 | 51.14578 | 8.46253 | 24568 ft | 347 kts | 324° |
| 2026-04-17 12:53 | 51.16593 | 8.44152 | 24083 ft | 347 kts | 324° |
| 2026-04-17 12:53 | 51.18619 | 8.42039 | 23562 ft | 348 kts | 324° |
| 2026-04-17 12:54 | 51.20647 | 8.39926 | 23044 ft | 348 kts | 324° |
| 2026-04-17 12:54 | 51.22669 | 8.37818 | 22576 ft | 347 kts | 324° |
| 2026-04-17 12:54 | 51.24686 | 8.35710 | 22107 ft | 346 kts | 324° |
| 2026-04-17 12:54 | 51.26698 | 8.33603 | 21643 ft | 346 kts | 324° |
| 2026-04-17 12:55 | 51.28707 | 8.31497 | 21188 ft | 345 kts | 324° |
| 2026-04-17 12:55 | 51.30710 | 8.29394 | 20716 ft | 345 kts | 324° |
| 2026-04-17 12:55 | 51.32715 | 8.27282 | 20258 ft | 345 kts | 324° |
| 2026-04-17 12:55 | 51.34613 | 8.24967 | 19799 ft | 343 kts | 314° |
| 2026-04-17 12:56 | 51.36113 | 8.22033 | 19353 ft | 340 kts | 300° |
| 2026-04-17 12:56 | 51.37304 | 8.18772 | 18908 ft | 339 kts | 298° |
| 2026-04-17 12:56 | 51.38477 | 8.15550 | 18459 ft | 340 kts | 298° |
| 2026-04-17 12:56 | 51.39670 | 8.12284 | 17980 ft | 339 kts | 298° |
| 2026-04-17 12:57 | 51.40859 | 8.09043 | 17575 ft | 337 kts | 298° |
| 2026-04-17 12:57 | 51.42042 | 8.05815 | 17211 ft | 334 kts | 298° |
| 2026-04-17 12:57 | 51.43221 | 8.02608 | 16801 ft | 333 kts | 299° |
| 2026-04-17 12:57 | 51.44395 | 7.99414 | 16357 ft | 333 kts | 299° |
| 2026-04-17 12:58 | 51.45564 | 7.96237 | 15940 ft | 332 kts | 299° |
| 2026-04-17 12:58 | 51.46355 | 7.94087 | 15741 ft | 329 kts | 299° |
| 2026-04-17 12:58 | 51.47646 | 7.91084 | 15427 ft | 328 kts | 310° |
| 2026-04-17 12:58 | 51.49404 | 7.88749 | 15046 ft | 330 kts | 327° |
| 2026-04-17 12:59 | 51.51517 | 7.87304 | 14692 ft | 332 kts | 341° |
| 2026-04-17 12:59 | 51.53701 | 7.86280 | 14337 ft | 331 kts | 341° |
| 2026-04-17 12:59 | 51.55932 | 7.85224 | 13967 ft | 328 kts | 341° |
| 2026-04-17 12:59 | 51.58101 | 7.84184 | 13437 ft | 325 kts | 340° |
| 2026-04-17 13:00 | 51.60228 | 7.83157 | 12796 ft | 321 kts | 340° |
| 2026-04-17 13:00 | 51.62355 | 7.82127 | 12236 ft | 316 kts | 340° |
| 2026-04-17 13:00 | 51.64428 | 7.81129 | 11799 ft | 306 kts | 341° |
| 2026-04-17 13:00 | 51.66462 | 7.80152 | 11404 ft | 297 kts | 341° |
| 2026-04-17 13:01 | 51.68393 | 7.79222 | 11013 ft | 290 kts | 341° |
| 2026-04-17 13:01 | 51.70300 | 7.78304 | 10619 ft | 283 kts | 341° |
| 2026-04-17 13:01 | 51.72153 | 7.77407 | 10243 ft | 278 kts | 341° |
| 2026-04-17 13:01 | 51.74021 | 7.76502 | 9813 ft | 282 kts | 341° |
| 2026-04-17 13:02 | 51.75908 | 7.75589 | 9399 ft | 284 kts | 341° |
| 2026-04-17 13:02 | 51.77805 | 7.74670 | 8975 ft | 286 kts | 341° |
| 2026-04-17 13:02 | 51.79715 | 7.73744 | 8550 ft | 287 kts | 341° |
| 2026-04-17 13:02 | 51.81630 | 7.72812 | 8113 ft | 289 kts | 341° |
| 2026-04-17 13:03 | 51.83574 | 7.71952 | 7670 ft | 291 kts | 349° |
| 2026-04-17 13:03 | 51.85587 | 7.71866 | 7261 ft | 292 kts | 7° |
| 2026-04-17 13:03 | 51.87527 | 7.72732 | 7015 ft | 286 kts | 24° |
| 2026-04-17 13:03 | 51.89249 | 7.74305 | 6870 ft | 285 kts | 32° |
| 2026-04-17 13:04 | 51.90943 | 7.75958 | 6731 ft | 284 kts | 31° |
| 2026-04-17 13:04 | 51.92636 | 7.77597 | 6555 ft | 283 kts | 31° |
| 2026-04-17 13:04 | 51.94325 | 7.79232 | 6224 ft | 282 kts | 31° |
| 2026-04-17 13:04 | 51.96005 | 7.80861 | 6040 ft | 280 kts | 31° |
| 2026-04-17 13:05 | 51.97678 | 7.82487 | 5878 ft | 279 kts | 31° |
| 2026-04-17 13:05 | 51.99339 | 7.84108 | 5719 ft | 279 kts | 31° |
| 2026-04-17 13:05 | 52.00999 | 7.85735 | 5555 ft | 279 kts | 31° |
| 2026-04-17 13:05 | 52.02660 | 7.87363 | 5408 ft | 279 kts | 31° |
| 2026-04-17 13:06 | 52.04315 | 7.88989 | 5264 ft | 278 kts | 31° |
| 2026-04-17 13:06 | 52.05966 | 7.90612 | 5106 ft | 277 kts | 31° |
| 2026-04-17 13:06 | 52.07613 | 7.92230 | 4910 ft | 277 kts | 31° |
| 2026-04-17 13:06 | 52.09280 | 7.93867 | 4475 ft | 279 kts | 31° |
| 2026-04-17 13:07 | 52.10926 | 7.95483 | 4185 ft | 276 kts | 31° |
| 2026-04-17 13:07 | 52.12572 | 7.97102 | 3812 ft | 275 kts | 31° |
| 2026-04-17 13:07 | 52.14168 | 7.98674 | 3647 ft | 259 kts | 31° |
| 2026-04-17 13:07 | 52.15660 | 8.00142 | 3537 ft | 242 kts | 31° |
| 2026-04-17 13:08 | 52.17131 | 8.01199 | 3442 ft | 223 kts | 6° |
| 2026-04-17 13:08 | 52.18560 | 8.00673 | 3391 ft | 209 kts | 324° |
| 2026-04-17 13:08 | 52.19403 | 7.98857 | 3329 ft | 202 kts | 287° |
| 2026-04-17 13:08 | 52.19376 | 7.96673 | 3247 ft | 192 kts | 252° |
| 2026-04-17 13:09 | 52.18950 | 7.94641 | 3201 ft | 188 kts | 250° |
| 2026-04-17 13:09 | 52.18529 | 7.92635 | 3047 ft | 187 kts | 250° |
| 2026-04-17 13:09 | 52.18112 | 7.90641 | 2819 ft | 185 kts | 251° |
| 2026-04-17 13:09 | 52.17706 | 7.88698 | 2585 ft | 176 kts | 251° |
| 2026-04-17 13:10 | 52.17328 | 7.86890 | 2362 ft | 166 kts | 251° |
| 2026-04-17 13:10 | 52.16967 | 7.85162 | 2150 ft | 156 kts | 250° |
| 2026-04-17 13:10 | 52.16637 | 7.83584 | 1951 ft | 140 kts | 251° |
| 2026-04-17 13:10 | 52.16335 | 7.82142 | 1759 ft | 130 kts | 250° |
| 2026-04-17 13:11 | 52.16046 | 7.80760 | 1592 ft | 128 kts | 251° |
| 2026-04-17 13:11 | 52.15760 | 7.79401 | 1427 ft | 126 kts | 251° |
| 2026-04-17 13:11 | 52.15478 | 7.78055 | 1268 ft | 125 kts | 251° |
| 2026-04-17 13:11 | 52.15195 | 7.76713 | 1084 ft | 125 kts | 251° |
| 2026-04-17 13:12 | 52.14915 | 7.75372 | 926 ft | 124 kts | 251° |
| 2026-04-17 13:12 | 52.14361 | 7.72731 | 599 ft | 124 kts | 250° |
| 2026-04-17 13:12 | 52.14080 | 7.71400 | 414 ft | 125 kts | 252° |
| 2026-04-17 13:13 | 52.13803 | 7.70056 | 256 ft | 125 kts | 251° |
| 2026-04-17 13:13 | 52.13527 | 7.68750 | 169 ft | 115 kts | 251° |
| 2026-04-17 13:13 | 52.13311 | 7.67723 | 163 ft | 72 kts | 251° |
| 2026-04-17 13:13 | 52.13198 | 7.67174 | 162 ft | 37 kts | 252° |
| 2026-04-17 13:14 | 52.13111 | 7.67045 | 164 ft | 18 kts | 167° |
| 2026-04-17 13:14 | 52.13030 | 7.67222 | 164 ft | 25 kts | 86° |
| 2026-04-17 13:14 | 52.13089 | 7.67535 | 162 ft | 33 kts | 70° |
| 2026-04-17 13:14 | 52.13147 | 7.67808 | 165 ft | 25 kts | 71° |
| 2026-04-17 13:15 | 52.13202 | 7.68069 | 167 ft | 22 kts | 71° |
| 2026-04-17 13:15 | 52.13252 | 7.68304 | 170 ft | 23 kts | 71° |
| 2026-04-17 13:15 | 52.13307 | 7.68568 | 170 ft | 27 kts | 71° |
| 2026-04-17 13:15 | 52.13367 | 7.68852 | 166 ft | 24 kts | 71° |
| 2026-04-17 13:16 | 52.13420 | 7.69102 | 164 ft | 21 kts | 71° |
| 2026-04-17 13:16 | 52.13398 | 7.69239 | 165 ft | 15 kts | 162° |
| 2026-04-17 13:16 | 52.13378 | 7.69250 | 165 ft | 5 kts | 161° |
| 2026-04-17 13:16 | 52.13317 | 7.69284 | 166 ft | 11 kts | 161° |
| 2026-04-17 13:17 | 52.13243 | 7.69341 | 167 ft | 13 kts | 125° |
| 2026-04-17 13:17 | 52.13264 | 7.69495 | 167 ft | 16 kts | 70° |
| 2026-04-17 13:17 | 52.13255 | 7.69574 | 167 ft | 6 kts | 185° |
| 2026-04-17 13:17 | 52.13220 | 7.69558 | 168 ft | 5 kts | 197° |
| 2026-04-17 13:18 | 52.13203 | 7.69550 | 168 ft | 1 kts | 197° |
| 2026-04-17 13:18 | 52.13202 | 7.69550 | 168 ft | 0 kts | 197° |